Pagina principale
METAR-TAF:

METAR-TAF

Aeroporti :

Aeroporto di Rennes-Saint-Jacques

Rennes, Francia

latitudine: 48-04N, longitudine: 001-44W, altezza: 37 m

Osservazione

Il bollettino è stato emesso 33 minuti fa, alle 17:00 UTC
Vento 12 kt da est/nord-est, variando fra nord/nord-est e est/sud-est
Temperature 26°C
Umidità 30%
Pressione 1015 hPa
Visibilità 10 km o più
nessuna nube inferiore a 1500 m e nessun cumulonembo

METAR: LFRN 311700Z AUTO 06012KT 030V110 CAVOK 26/07 Q1015 NOSIG

Ora: 19:33 (17:33 UTC)

Previsione

Il bollettino è stato emesso 6 ore e 33 minuti fa, alle 11:00 UTC
Previsione valida dal 31 alle 12 UTC al 01 alle 12 UTC
Vento 10 kt da est/nord-est
Visibilità 10 km o più
nessuna nube inferiore a 1500 m e nessun cumulonembo
Temporaneamente
dal 31 alle 12 UTC al 31 alle 16 UTC
Vento 15 kt da est con raffiche fino a 25 kt

TAF: LFRN 311100Z 3112/0112 07010KT CAVOK TEMPO 3112/3116 08015G25KT

Osservazioni e previsioni meteorologiche di più di 4000 aeroporti (messaggi METAR e TAF).

Le stazioni disponibili sono rappresentate dai dischi gialli e rossi sulla carta.

Puntare il mouse per vedere il nome della stazione.

Clicca sopra per visualizzare le osservazioni e previsioni meteorologiche.

Per cambiare la mappa : fare clic sui pulsanti verdi con una croce nera per ingrandire, il pulsante verde con un trattino per diminuire, o sulla freccia verde per le mappe adiacenti.


METAR-TAF: